Time;durP1;ratioP1;P1;durP2;ratioP2;P2;SDS_P1;SDS_P2;PMS_P1;PMS_P2;Temp;Humidity;BMP_temperature;BMP_pressure;BME280_temperature;BME280_humidity;BME280_pressure;Samples;Min_cycle;Max_cycle;Signal;HPM_P1;HPM_P2
2023/04/28 00:00:05;;;;;;;;;;;;;;;;;;;;;
2023/04/28 00:04:07;;;;;;;10.20;6.70;;;1.00;99.90;;;;;;8198494;28;20208;-70
2023/04/28 00:13:47;;;;;;;11.40;6.60;;;1.20;99.90;;;;;;8165831;28;20288;-67
2023/04/28 00:18:19;;;;;;;11.83;6.67;;;1.20;99.90;;;;;;8167990;28;20217;-67
2023/04/28 00:22:58;;;;;;;;;;;;;;;;;;;;;
2023/04/28 00:27:23;;;;;;;9.67;6.63;;;1.40;99.90;;;;;;8165148;28;20233;-66
2023/04/28 00:36:13;;;;;;;12.83;7.33;;;1.60;89.60;;;;;;8209492;28;20200;-67
2023/04/28 00:40:50;;;;;;;11.83;6.80;;;1.60;55.00;;;;;;8191988;28;20279;-66
2023/04/28 00:45:06;;;;;;;12.47;8.20;;;1.60;50.20;;;;;;8196973;28;20267;-66
2023/04/28 00:49:36;;;;;;;10.43;7.20;;;1.70;53.30;;;;;;8200008;28;20207;-66
2023/04/28 00:53:58;;;;;;;22.93;12.47;;;1.70;57.20;;;;;;8191028;28;20215;-66
2023/04/28 00:58:21;;;;;;;25.97;12.50;;;1.60;99.90;;;;;;8212703;28;20242;-65
2023/04/28 01:02:31;;;;;;;22.23;13.17;;;1.50;99.90;;;;;;8213096;28;20295;-66
2023/04/28 01:06:39;;;;;;;23.77;12.90;;;1.40;99.90;;;;;;8205324;28;20220;-67
2023/04/28 01:11:19;;;;;;;;;;;;;;;;;;;;;
2023/04/28 01:19:57;;;;;;;22.40;12.10;;;1.50;99.90;;;;;;8233128;23;20246;-65
2023/04/28 01:24:10;;;;;;;22.90;12.73;;;1.60;99.90;;;;;;8210473;28;20212;-66
2023/04/28 01:28:20;;;;;;;20.50;12.70;;;1.70;99.90;;;;;;8226060;28;20211;-66
2023/04/28 01:32:32;;;;;;;20.27;12.77;;;1.70;99.90;;;;;;8224724;28;20197;-66
2023/04/28 01:42:16;;;;;;;22.13;11.53;;;1.80;99.90;;;;;;8155520;28;20189;-65
2023/04/28 01:46:29;;;;;;;16.53;9.83;;;1.80;99.90;;;;;;8098898;28;20229;-66
2023/04/28 01:50:54;;;;;;;15.10;9.83;;;1.80;99.90;;;;;;8146204;28;20206;-66
2023/04/28 01:55:44;;;;;;;15.63;10.10;;;1.70;99.90;;;;;;8163559;28;20191;-66
2023/04/28 02:05:04;;;;;;;13.67;8.90;;;1.70;99.90;;;;;;8184235;28;20227;-67
2023/04/28 02:09:36;;;;;;;15.93;10.33;;;1.60;99.90;;;;;;8223557;28;20200;-67
2023/04/28 02:13:54;;;;;;;17.73;11.27;;;1.50;99.90;;;;;;8225863;28;20204;-66
2023/04/28 02:18:41;;;;;;;;;;;;;;;;;;;;;
2023/04/28 02:23:33;;;;;;;14.30;9.03;;;1.40;99.90;;;;;;8229869;28;20219;-66
2023/04/28 02:27:45;;;;;;;15.00;8.23;;;1.30;99.90;;;;;;8221649;28;20192;-65
2023/04/28 02:32:04;;;;;;;12.57;8.23;;;1.30;99.90;;;;;;8212227;28;20279;-66
2023/04/28 02:40:59;;;;;;;12.57;7.83;;;1.20;1.00;;;;;;8213903;28;20309;-66
2023/04/28 02:45:10;;;;;;;13.30;8.17;;;1.20;1.00;;;;;;8219047;28;20224;-66
2023/04/28 02:49:59;;;;;;;;;;;;;;;;;;;;;
2023/04/28 02:54:29;;;;;;;10.93;7.43;;;1.10;1.00;;;;;;8146453;29;20242;-66
2023/04/28 03:03:23;;;;;;;12.60;7.17;;;1.00;10.00;;;;;;8217540;28;20229;-66
2023/04/28 03:07:58;;;;;;;15.97;8.60;;;1.10;29.00;;;;;;8227853;28;20180;-66
2023/04/28 03:12:21;;;;;;;13.83;8.83;;;1.10;90.60;;;;;;8040331;29;20298;-65
2023/04/28 03:17:06;;;;;;;12.13;8.17;;;1.20;97.70;;;;;;8053849;29;20223;-67
2023/04/28 03:31:18;;;;;;;18.03;10.83;;;1.40;62.80;;;;;;7982830;29;20214;-67
2023/04/28 03:35:30;;;;;;;18.70;9.63;;;1.40;55.00;;;;;;8042724;29;20201;-66
2023/04/28 03:49:22;;;;;;;21.20;12.07;;;1.70;1.00;;;;;;8181277;28;20227;-66
2023/04/28 03:53:54;;;;;;;69.80;30.10;;;1.80;1.00;;;;;;8242118;28;20180;-66
2023/04/28 03:58:14;;;;;;;91.40;33.03;;;1.90;1.00;;;;;;8198176;28;20197;-66
2023/04/28 04:02:20;;;;;;;54.80;20.83;;;1.90;1.00;;;;;;8194658;28;20263;-66
2023/04/28 04:06:40;;;;;;;27.83;14.60;;;2.00;1.00;;;;;;8187071;28;20224;-66
2023/04/28 04:10:44;;;;;;;16.97;11.63;;;2.10;99.90;;;;;;8200289;28;20360;-66
2023/04/28 04:20:48;;;;;;;25.90;15.23;;;2.30;99.90;;;;;;8143263;28;20304;-66
2023/04/28 04:25:14;;;;;;;;;;;;;;;;;;;;;
2023/04/28 04:29:43;;;;;;;31.53;16.37;;;2.60;99.90;;;;;;8197385;28;20288;-67
2023/04/28 04:33:50;;;;;;;27.97;16.23;;;2.80;99.90;;;;;;8181780;28;20205;-66
2023/04/28 04:38:19;;;;;;;43.07;22.73;;;3.00;99.90;;;;;;8178873;28;20193;-66
2023/04/28 04:42:46;;;;;;;49.30;26.63;;;3.30;1.00;;;;;;8198637;28;20200;-66
2023/04/28 04:48:02;;;;;;;45.03;25.37;;;3.50;1.00;;;;;;8183440;28;20196;-65
2023/04/28 04:52:44;;;;;;;42.13;23.87;;;3.70;1.00;;;;;;8201614;28;20204;-66
2023/04/28 04:56:53;;;;;;;40.00;23.57;;;4.00;99.90;;;;;;8231684;28;20290;-65
2023/04/28 05:01:26;;;;;;;44.83;27.07;;;4.20;99.90;;;;;;8226872;28;20188;-66
2023/04/28 05:05:27;;;;;;;48.10;30.07;;;4.40;99.90;;;;;;8216168;28;20255;-65
2023/04/28 05:09:29;;;;;;;56.13;34.00;;;4.60;99.90;;;;;;8218251;28;20189;-65
2023/04/28 05:13:35;;;;;;;52.97;34.37;;;4.80;99.90;;;;;;8221964;28;20226;-66
2023/04/28 05:17:37;;;;;;;48.37;31.83;;;5.00;99.90;;;;;;8227022;28;20215;-65
2023/04/28 05:21:38;;;;;;;49.67;31.20;;;5.30;99.90;;;;;;8241895;28;20208;-64
2023/04/28 05:25:39;;;;;;;45.63;28.20;;;5.60;99.90;;;;;;8233563;28;20239;-66
2023/04/28 05:29:41;;;;;;;47.27;29.33;;;6.10;99.90;;;;;;8216643;28;20189;-69
2023/04/28 05:33:41;;;;;;;46.77;25.00;;;6.50;99.90;;;;;;8226104;28;20238;-66
2023/04/28 05:37:45;;;;;;;47.93;29.50;;;6.90;70.70;;;;;;8225402;28;20211;-65
2023/04/28 05:41:46;;;;;;;42.73;27.50;;;7.10;32.00;;;;;;8224689;28;20302;-66
2023/04/28 05:45:47;;;;;;;25.80;16.53;;;7.40;16.00;;;;;;8222939;28;20223;-66
2023/04/28 05:49:48;;;;;;;22.70;15.03;;;7.50;1.00;;;;;;8222514;28;20188;-65
2023/04/28 05:53:52;;;;;;;21.40;14.50;;;7.60;1.00;;;;;;8221161;28;20206;-64
2023/04/28 05:57:54;;;;;;;21.80;13.60;;;7.90;1.00;;;;;;8226121;28;20235;-65
2023/04/28 06:02:13;;;;;;;19.60;14.07;;;8.20;1.00;;;;;;8220374;28;20219;-66
2023/04/28 06:06:14;;;;;;;24.93;14.23;;;8.40;1.00;;;;;;8223997;28;20216;-65
2023/04/28 06:10:15;;;;;;;21.53;14.07;;;8.50;1.00;;;;;;8237926;28;20311;-69
2023/04/28 06:14:16;;;;;;;31.63;20.00;;;8.70;1.00;;;;;;8236509;28;20196;-69
2023/04/28 06:18:23;;;;;;;23.73;14.50;;;9.00;1.00;;;;;;8240053;28;20298;-69
2023/04/28 06:22:26;;;;;;;31.57;19.50;;;9.10;1.00;;;;;;8229132;28;20203;-70
2023/04/28 06:26:28;;;;;;;35.60;22.77;;;9.20;1.00;;;;;;8240749;28;20228;-68
2023/04/28 06:30:29;;;;;;;23.37;14.50;;;9.30;1.00;;;;;;8225767;28;20180;-68
2023/04/28 06:34:33;;;;;;;21.17;14.17;;;9.30;1.00;;;;;;8228463;28;20207;-70
2023/04/28 06:38:34;;;;;;;20.10;13.27;;;9.30;1.00;;;;;;8221103;28;20280;-68
2023/04/28 06:42:39;;;;;;;31.17;22.73;;;9.40;1.00;;;;;;8219564;28;20231;-67
2023/04/28 06:46:40;;;;;;;20.20;13.23;;;9.50;1.00;;;;;;8238449;28;20238;-71
2023/04/28 06:50:42;;;;;;;29.93;18.00;;;9.60;1.00;;;;;;8228325;28;20188;-69
2023/04/28 06:54:46;;;;;;;19.37;13.50;;;9.80;1.00;;;;;;8240378;28;20192;-68
2023/04/28 06:58:47;;;;;;;19.00;12.53;;;9.80;1.00;;;;;;8220738;28;20199;-67
2023/04/28 07:02:48;;;;;;;28.80;17.87;;;9.90;1.00;;;;;;8227198;28;20195;-70
2023/04/28 07:06:52;;;;;;;47.53;25.83;;;9.90;1.00;;;;;;8224512;28;20184;-68
2023/04/28 07:10:53;;;;;;;24.07;14.10;;;10.00;1.00;;;;;;8226947;28;20231;-69
2023/04/28 07:14:54;;;;;;;26.97;17.77;;;10.20;1.00;;;;;;8219761;28;20289;-69
2023/04/28 07:18:55;;;;;;;20.13;11.80;;;10.20;1.00;;;;;;8237774;28;20211;-68
2023/04/28 07:22:56;;;;;;;15.90;10.93;;;10.40;1.00;;;;;;8223823;28;20189;-68
2023/04/28 07:26:57;;;;;;;17.60;11.27;;;10.70;1.00;;;;;;8219105;28;20188;-68
2023/04/28 07:30:58;;;;;;;37.10;19.33;;;10.90;1.00;;;;;;8229739;28;20234;-68
2023/04/28 07:35:03;;;;;;;19.13;12.07;;;11.00;1.00;;;;;;8243517;28;20306;-68
2023/04/28 07:39:07;;;;;;;170.93;64.73;;;11.20;1.00;;;;;;8233514;28;20192;-68
2023/04/28 07:43:08;;;;;;;56.00;28.50;;;11.40;1.00;;;;;;8239688;28;20229;-69
2023/04/28 07:47:09;;;;;;;21.80;12.63;;;11.60;1.00;;;;;;8235486;28;20199;-68
2023/04/28 07:51:10;;;;;;;13.63;9.60;;;11.70;1.00;;;;;;8241088;28;20238;-68
2023/04/28 07:55:11;;;;;;;16.47;10.70;;;11.90;1.00;;;;;;8219563;28;20315;-68
2023/04/28 07:59:13;;;;;;;12.93;9.27;;;12.00;1.00;;;;;;8214777;28;20210;-68
2023/04/28 08:03:14;;;;;;;17.03;11.57;;;12.10;1.00;;;;;;8236862;28;20223;-68
2023/04/28 08:07:15;;;;;;;15.27;8.90;;;12.30;1.00;;;;;;8279554;28;20222;-69
2023/04/28 08:11:16;;;;;;;17.20;10.83;;;12.50;1.00;;;;;;8295222;28;20194;-68
2023/04/28 08:15:20;;;;;;;13.70;8.97;;;12.70;1.00;;;;;;8295104;28;20209;-68
2023/04/28 08:19:21;;;;;;;12.70;9.17;;;13.00;1.00;;;;;;8293141;28;20198;-68
2023/04/28 08:23:22;;;;;;;16.03;9.67;;;13.10;1.00;;;;;;8291382;28;20202;-69
2023/04/28 08:27:24;;;;;;;12.30;9.10;;;13.20;1.00;;;;;;8293966;28;20199;-68
2023/04/28 08:31:25;;;;;;;10.80;7.90;;;13.40;1.00;;;;;;8293585;28;20182;-68
2023/04/28 08:35:26;;;;;;;9.77;7.73;;;13.60;1.00;;;;;;8290324;28;20200;-67
2023/04/28 08:39:29;;;;;;;12.73;8.30;;;13.90;1.00;;;;;;8295179;28;20195;-67
2023/04/28 08:43:34;;;;;;;10.37;7.00;;;14.00;1.00;;;;;;8298901;28;20206;-68
2023/04/28 08:47:37;;;;;;;10.23;7.83;;;14.10;1.00;;;;;;8305128;28;20187;-66
2023/04/28 08:51:46;;;;;;;14.37;7.70;;;14.30;1.00;;;;;;8307508;28;20301;-66
2023/04/28 08:55:48;;;;;;;12.87;6.77;;;14.50;1.00;;;;;;8288467;28;20194;-66
2023/04/28 08:59:50;;;;;;;11.30;8.77;;;14.70;1.00;;;;;;8293327;28;20191;-67
2023/04/28 09:03:53;;;;;;;20.53;13.90;;;14.80;1.00;;;;;;8290100;28;20280;-68
2023/04/28 09:07:55;;;;;;;22.00;14.33;;;15.00;1.00;;;;;;8302609;28;20197;-68
2023/04/28 09:11:58;;;;;;;53.20;38.07;;;15.00;1.00;;;;;;8289721;28;20187;-68
2023/04/28 09:16:03;;;;;;;18.07;11.37;;;15.30;1.00;;;;;;8286711;28;20241;-68
2023/04/28 09:20:19;;;;;;;19.97;12.80;;;15.50;1.00;;;;;;8292782;28;20207;-69
2023/04/28 09:24:35;;;;;;;13.97;7.60;;;15.80;1.00;;;;;;8287596;28;20203;-67
2023/04/28 09:28:37;;;;;;;15.67;9.77;;;15.90;1.00;;;;;;8290234;28;20214;-68
2023/04/28 09:32:38;;;;;;;10.60;6.63;;;16.00;1.00;;;;;;8295377;28;20211;-66
2023/04/28 09:36:38;;;;;;;10.87;7.10;;;16.20;1.00;;;;;;8313393;28;20191;-67
2023/04/28 09:40:59;;;;;;;12.13;6.53;;;16.50;1.00;;;;;;8300191;28;20348;-63
2023/04/28 09:45:02;;;;;;;13.27;5.57;;;16.50;1.00;;;;;;8296301;28;20210;-63
2023/04/28 09:49:06;;;;;;;12.77;6.43;;;16.60;1.00;;;;;;8300540;28;20183;-66
2023/04/28 09:53:12;;;;;;;10.93;6.07;;;16.70;1.00;;;;;;8299554;28;20182;-65
2023/04/28 09:57:14;;;;;;;11.67;5.47;;;16.80;1.00;;;;;;8296423;28;20293;-66
2023/04/28 10:01:15;;;;;;;7.77;5.50;;;16.90;1.00;;;;;;8309314;28;20191;-65
2023/04/28 10:05:17;;;;;;;9.20;5.50;;;17.00;1.00;;;;;;8295290;28;20210;-65
2023/04/28 10:09:25;;;;;;;11.10;5.60;;;17.20;1.00;;;;;;8301606;28;20186;-64
2023/04/28 10:13:31;;;;;;;7.30;4.87;;;17.30;1.00;;;;;;8290613;28;20266;-67
2023/04/28 10:17:33;;;;;;;9.93;5.67;;;17.40;1.00;;;;;;8290979;28;20214;-67
2023/04/28 10:21:43;;;;;;;9.20;5.13;;;17.50;1.00;;;;;;8294387;28;20206;-67
2023/04/28 10:25:49;;;;;;;10.73;7.63;;;17.70;1.00;;;;;;8290199;28;20313;-68
2023/04/28 10:29:50;;;;;;;11.03;6.43;;;18.00;1.00;;;;;;8286220;28;20191;-69
2023/04/28 10:33:51;;;;;;;8.13;5.67;;;18.40;1.00;;;;;;8289003;28;20365;-69
2023/04/28 10:38:20;;;;;;;7.77;4.80;;;18.70;1.00;;;;;;8286076;28;20194;-69
2023/04/28 10:42:53;;;;;;;7.07;5.60;;;19.20;1.00;;;;;;8286826;28;20492;-68
2023/04/28 10:47:06;;;;;;;9.33;5.17;;;19.70;1.00;;;;;;8293457;28;20190;-68
2023/04/28 10:51:11;;;;;;;13.23;6.53;;;20.10;1.00;;;;;;8289718;28;20206;-69
2023/04/28 10:55:29;;;;;;;9.37;5.27;;;19.90;1.00;;;;;;8286955;28;20216;-69
2023/04/28 10:59:40;;;;;;;9.93;5.00;;;20.00;1.00;;;;;;8289797;28;20271;-70
2023/04/28 11:03:46;;;;;;;12.63;4.30;;;20.20;1.00;;;;;;8286427;28;20202;-66
2023/04/28 11:08:24;;;;;;;11.73;4.80;;;20.40;1.00;;;;;;8282962;28;20247;-67
2023/04/28 11:12:26;;;;;;;10.90;5.23;;;20.40;1.00;;;;;;8286382;28;20183;-68
2023/04/28 11:16:58;;;;;;;8.07;5.23;;;20.50;1.00;;;;;;8291656;28;20234;-66
2023/04/28 11:21:00;;;;;;;7.33;4.33;;;20.60;1.00;;;;;;8284482;28;20216;-65
2023/04/28 11:25:05;;;;;;;7.20;3.13;;;20.60;1.00;;;;;;8303745;28;20225;-66
2023/04/28 11:29:08;;;;;;;7.20;3.50;;;20.60;1.00;;;;;;8297398;28;20191;-66
2023/04/28 11:33:09;;;;;;;6.13;3.47;;;20.90;1.00;;;;;;8306159;28;20178;-67
2023/04/28 11:37:14;;;;;;;7.93;3.00;;;21.10;1.00;;;;;;8303703;28;20270;-66
2023/04/28 11:41:17;;;;;;;6.03;3.07;;;21.10;1.00;;;;;;8309050;28;20312;-67
2023/04/28 11:45:18;;;;;;;5.77;3.17;;;21.40;1.00;;;;;;8313220;28;20210;-66
2023/04/28 11:49:23;;;;;;;5.93;3.03;;;21.70;1.00;;;;;;8310317;28;20232;-67
2023/04/28 11:53:44;;;;;;;5.77;2.70;;;21.90;1.00;;;;;;8309034;28;20211;-68
2023/04/28 11:57:48;;;;;;;4.30;2.83;;;21.90;1.00;;;;;;8305146;28;20331;-65
2023/04/28 12:01:52;;;;;;;4.30;2.80;;;21.70;1.00;;;;;;8312361;28;20189;-67
2023/04/28 12:05:53;;;;;;;3.67;1.93;;;21.90;1.00;;;;;;8326909;28;20280;-67
2023/04/28 12:10:15;;;;;;;4.83;2.70;;;21.90;1.00;;;;;;8327933;28;20187;-66
2023/04/28 12:14:16;;;;;;;5.93;2.70;;;22.00;1.00;;;;;;8322527;28;20217;-65
2023/04/28 12:18:18;;;;;;;4.97;2.67;;;22.10;1.00;;;;;;8307861;28;20179;-67
2023/04/28 12:22:19;;;;;;;6.17;2.50;;;22.10;1.00;;;;;;8324153;28;20194;-68
2023/04/28 12:26:26;;;;;;;4.97;2.70;;;22.20;1.00;;;;;;8309503;28;20191;-66
2023/04/28 12:30:28;;;;;;;4.77;2.30;;;22.40;1.00;;;;;;8318291;28;20194;-66
2023/04/28 12:34:30;;;;;;;4.17;2.00;;;22.00;1.00;;;;;;8307399;28;20210;-66
2023/04/28 12:38:34;;;;;;;5.40;2.30;;;22.00;1.00;;;;;;8327155;28;20198;-67
2023/04/28 12:42:36;;;;;;;4.53;1.77;;;22.00;1.00;;;;;;8310823;28;20218;-67
2023/04/28 12:46:37;;;;;;;5.53;1.87;;;21.70;1.00;;;;;;8298502;28;20187;-68
2023/04/28 12:50:38;;;;;;;4.23;2.50;;;21.60;1.00;;;;;;8310136;28;20183;-68
2023/04/28 12:54:45;;;;;;;3.27;1.83;;;21.70;1.00;;;;;;8297953;28;20207;-68
2023/04/28 12:58:46;;;;;;;2.37;1.57;;;21.70;1.00;;;;;;8299900;28;20175;-68
2023/04/28 13:02:51;;;;;;;4.27;2.00;;;21.70;1.00;;;;;;8300107;28;20194;-68
2023/04/28 13:06:53;;;;;;;5.60;1.97;;;22.00;1.00;;;;;;8297688;28;20187;-68
2023/04/28 13:10:57;;;;;;;4.07;1.80;;;22.00;1.00;;;;;;8300011;28;20193;-68
2023/04/28 13:15:02;;;;;;;3.20;1.90;;;22.30;1.00;;;;;;8300805;28;20223;-67
2023/04/28 13:19:08;;;;;;;4.00;1.90;;;22.10;1.00;;;;;;8298985;28;20187;-68
2023/04/28 13:23:09;;;;;;;5.40;2.43;;;22.10;1.00;;;;;;8311838;28;20198;-67
2023/04/28 13:27:10;;;;;;;4.80;2.10;;;22.50;1.00;;;;;;8314205;28;20182;-68
2023/04/28 13:31:12;;;;;;;2.93;1.53;;;22.70;1.00;;;;;;8301074;28;20183;-67
2023/04/28 13:35:13;;;;;;;3.80;1.80;;;22.50;1.00;;;;;;8311028;28;20225;-66
2023/04/28 13:39:15;;;;;;;3.10;1.60;;;22.50;1.00;;;;;;8296202;28;20190;-67
2023/04/28 13:43:16;;;;;;;2.27;1.70;;;22.40;1.00;;;;;;8295592;28;20261;-65
2023/04/28 13:47:17;;;;;;;3.53;1.77;;;22.20;1.00;;;;;;8298188;28;20206;-66
2023/04/28 13:51:25;;;;;;;4.03;1.70;;;22.00;1.00;;;;;;8313621;28;20187;-66
2023/04/28 13:55:29;;;;;;;3.23;1.60;;;21.70;1.00;;;;;;8288596;28;20250;-67
2023/04/28 13:59:38;;;;;;;8.00;1.93;;;21.20;1.00;;;;;;8290480;28;20186;-66
2023/04/28 14:03:40;;;;;;;6.97;2.70;;;20.80;1.00;;;;;;8312376;28;20179;-66
2023/04/28 14:07:41;;;;;;;4.63;2.17;;;20.30;1.00;;;;;;8305509;28;20191;-68
2023/04/28 14:11:42;;;;;;;4.53;1.90;;;20.00;1.00;;;;;;8297193;28;20278;-67
2023/04/28 14:15:44;;;;;;;2.07;1.50;;;19.60;1.00;;;;;;8313264;28;20217;-67
2023/04/28 14:19:48;;;;;;;3.93;1.50;;;19.40;1.00;;;;;;8314092;28;20211;-67
2023/04/28 14:23:52;;;;;;;3.60;1.40;;;19.00;1.00;;;;;;8299845;28;20191;-66
2023/04/28 14:27:53;;;;;;;2.23;1.53;;;18.80;1.00;;;;;;8298184;28;20190;-67
2023/04/28 14:31:54;;;;;;;4.33;1.93;;;18.70;1.00;;;;;;8315771;28;20186;-69
2023/04/28 14:35:55;;;;;;;5.43;1.60;;;18.60;1.00;;;;;;8311738;28;20214;-68
2023/04/28 14:39:56;;;;;;;3.73;1.40;;;18.50;1.00;;;;;;8294128;28;20191;-68
2023/04/28 14:43:57;;;;;;;2.73;1.40;;;18.30;1.00;;;;;;8298173;28;20218;-67
2023/04/28 14:47:58;;;;;;;3.70;1.83;;;18.30;1.00;;;;;;8298493;28;20187;-66
2023/04/28 14:51:59;;;;;;;4.77;1.80;;;18.30;1.00;;;;;;8297525;28;20186;-66
2023/04/28 14:56:03;;;;;;;4.80;1.60;;;18.30;1.00;;;;;;8292487;28;20287;-66
2023/04/28 15:00:06;;;;;;;4.73;1.50;;;18.30;1.00;;;;;;8309639;28;20275;-65
2023/04/28 15:04:08;;;;;;;2.80;1.50;;;18.20;1.00;;;;;;8293234;28;20194;-65
2023/04/28 15:08:12;;;;;;;2.17;1.50;;;18.20;1.00;;;;;;8307234;28;20279;-65
2023/04/28 15:12:13;;;;;;;3.13;1.63;;;18.20;1.00;;;;;;8309487;28;20226;-66
2023/04/28 15:16:15;;;;;;;2.20;1.37;;;18.20;1.00;;;;;;8295779;28;20226;-67
2023/04/28 15:20:16;;;;;;;9.17;2.17;;;18.20;1.00;;;;;;8306184;28;20194;-66
2023/04/28 15:24:18;;;;;;;5.70;1.70;;;18.30;1.00;;;;;;8301139;28;20189;-66
2023/04/28 15:28:19;;;;;;;2.67;1.50;;;18.30;1.00;;;;;;8297223;28;20210;-66
2023/04/28 15:32:22;;;;;;;3.53;1.50;;;18.30;1.00;;;;;;8318326;28;20186;-65
2023/04/28 15:36:23;;;;;;;3.77;1.60;;;18.30;1.00;;;;;;8315487;28;20225;-65
2023/04/28 15:40:24;;;;;;;2.57;1.60;;;18.30;1.00;;;;;;8299290;28;20322;-67
2023/04/28 15:44:24;;;;;;;5.00;2.10;;;18.40;1.00;;;;;;8312426;28;20575;-67
2023/04/28 15:48:26;;;;;;;4.20;2.60;;;18.30;1.00;;;;;;8312963;28;20287;-67
2023/04/28 15:52:30;;;;;;;4.53;1.80;;;18.30;1.00;;;;;;8314778;28;20245;-67
2023/04/28 15:56:34;;;;;;;5.67;2.17;;;18.20;1.00;;;;;;8301403;28;20295;-67
2023/04/28 16:00:40;;;;;;;2.23;1.80;;;18.00;1.00;;;;;;8299965;28;20190;-67
2023/04/28 16:04:43;;;;;;;4.93;1.93;;;17.70;1.00;;;;;;8315826;28;20206;-66
2023/04/28 16:08:44;;;;;;;4.50;1.90;;;17.50;1.00;;;;;;8316298;28;20221;-67
2023/04/28 16:12:46;;;;;;;5.70;1.90;;;17.20;1.00;;;;;;8298105;28;20278;-67
2023/04/28 16:16:47;;;;;;;3.43;1.63;;;17.10;1.00;;;;;;8315529;28;20241;-68
2023/04/28 16:20:52;;;;;;;4.20;1.90;;;17.10;1.00;;;;;;8298109;28;20203;-68
2023/04/28 16:25:02;;;;;;;6.43;2.20;;;17.10;1.00;;;;;;8309330;28;20195;-69
2023/04/28 16:29:03;;;;;;;2.70;2.00;;;17.20;1.00;;;;;;8318573;28;20205;-67
2023/04/28 16:33:04;;;;;;;5.53;2.93;;;17.10;1.00;;;;;;8306016;28;20194;-68
2023/04/28 16:37:06;;;;;;;6.63;3.07;;;17.10;1.00;;;;;;8304021;28;20273;-68
2023/04/28 16:41:14;;;;;;;8.67;3.27;;;16.90;1.00;;;;;;8304586;28;20187;-67
2023/04/28 16:45:17;;;;;;;4.00;2.23;;;16.90;1.00;;;;;;8308389;28;20272;-67
2023/04/28 16:49:18;;;;;;;4.17;2.03;;;16.90;1.00;;;;;;8320857;28;20226;-67
2023/04/28 16:53:20;;;;;;;2.17;1.80;;;16.90;1.00;;;;;;8304780;28;20224;-66
2023/04/28 16:57:30;;;;;;;2.23;1.50;;;16.90;1.00;;;;;;8310221;28;20186;-66
2023/04/28 17:01:31;;;;;;;3.47;2.00;;;16.80;1.00;;;;;;8304918;28;20199;-66
2023/04/28 17:05:32;;;;;;;1.73;1.20;;;16.70;1.00;;;;;;8310275;28;20209;-67
2023/04/28 17:09:33;;;;;;;2.40;1.20;;;16.60;1.00;;;;;;8320015;28;20211;-67
2023/04/28 17:13:35;;;;;;;5.63;2.30;;;16.50;1.00;;;;;;8303768;28;20210;-67
2023/04/28 17:17:36;;;;;;;2.87;1.83;;;16.50;1.00;;;;;;8303485;28;20214;-67
2023/04/28 17:21:37;;;;;;;3.07;2.00;;;16.30;1.00;;;;;;8306711;28;20289;-68
2023/04/28 17:25:38;;;;;;;4.10;2.10;;;16.20;1.00;;;;;;8305690;28;20282;-67
2023/04/28 17:29:40;;;;;;;2.27;1.87;;;15.90;1.00;;;;;;8302267;28;20195;-68
2023/04/28 17:33:41;;;;;;;3.40;1.87;;;15.80;1.00;;;;;;8304312;28;20207;-67
2023/04/28 17:37:42;;;;;;;3.23;1.97;;;15.60;1.00;;;;;;8303094;28;20524;-67
2023/04/28 17:41:46;;;;;;;3.67;1.90;;;15.50;1.00;;;;;;8320345;28;20270;-67
2023/04/28 17:45:49;;;;;;;2.43;1.73;;;15.30;1.00;;;;;;8305335;28;20190;-67
2023/04/28 17:49:51;;;;;;;2.30;1.47;;;15.10;1.00;;;;;;8307769;28;20233;-68
2023/04/28 17:53:52;;;;;;;2.90;2.17;;;15.00;1.00;;;;;;8302669;28;20198;-68
2023/04/28 17:57:53;;;;;;;4.97;2.80;;;14.80;1.00;;;;;;8307493;28;20187;-67
2023/04/28 18:01:55;;;;;;;4.03;2.93;;;14.70;1.00;;;;;;8301699;28;20278;-67
2023/04/28 18:06:03;;;;;;;5.27;3.50;;;14.50;1.00;;;;;;8304740;28;20213;-68
2023/04/28 18:10:05;;;;;;;7.33;3.97;;;14.40;1.00;;;;;;8304809;28;20193;-69
2023/04/28 18:14:06;;;;;;;7.50;3.73;;;14.30;1.00;;;;;;8299395;28;20223;-68
2023/04/28 18:18:11;;;;;;;6.03;4.07;;;14.20;1.00;;;;;;8304805;28;20209;-68
2023/04/28 18:22:17;;;;;;;8.40;4.27;;;14.10;1.00;;;;;;8313321;28;20203;-67
2023/04/28 18:26:21;;;;;;;4.73;3.47;;;13.90;1.00;;;;;;8303411;28;20225;-67
2023/04/28 18:30:25;;;;;;;8.63;4.40;;;13.70;1.00;;;;;;8307867;28;20190;-68
2023/04/28 18:34:28;;;;;;;7.63;4.13;;;13.50;1.00;;;;;;8318317;28;20210;-68
2023/04/28 18:38:30;;;;;;;6.73;3.73;;;13.30;1.00;;;;;;8305856;28;20237;-67
2023/04/28 18:42:45;;;;;;;7.73;4.37;;;13.20;1.00;;;;;;8308130;28;20196;-68
2023/04/28 18:46:54;;;;;;;7.70;4.53;;;13.10;1.00;;;;;;8309080;28;20199;-68
2023/04/28 18:50:55;;;;;;;5.13;3.90;;;13.00;1.00;;;;;;8319935;28;20182;-68
2023/04/28 18:55:02;;;;;;;5.93;4.10;;;12.90;1.00;;;;;;8320780;28;20310;-68
2023/04/28 18:59:03;;;;;;;5.70;3.80;;;12.80;1.00;;;;;;8304156;28;20187;-69
2023/04/28 19:03:07;;;;;;;5.13;3.30;;;12.80;1.00;;;;;;8301623;28;20198;-68
2023/04/28 19:07:08;;;;;;;4.57;3.03;;;12.70;1.00;;;;;;8302135;28;20194;-68
2023/04/28 19:11:10;;;;;;;5.27;3.43;;;12.70;1.00;;;;;;8317768;28;20224;-68
2023/04/28 19:15:20;;;;;;;5.67;3.00;;;12.60;1.00;;;;;;8298412;28;20306;-67
2023/04/28 19:19:24;;;;;;;4.13;3.17;;;12.50;1.00;;;;;;8293898;28;20198;-67
2023/04/28 19:23:29;;;;;;;5.37;3.73;;;12.50;1.00;;;;;;8301226;28;20194;-68
2023/04/28 19:27:35;;;;;;;6.97;4.60;;;12.40;1.00;;;;;;8295545;28;20182;-69
2023/04/28 19:31:38;;;;;;;8.43;5.63;;;12.30;1.00;;;;;;8293919;28;20194;-67
2023/04/28 19:35:42;;;;;;;26.73;14.63;;;12.20;1.00;;;;;;8295110;28;20330;-67
2023/04/28 19:39:43;;;;;;;26.30;13.80;;;12.10;1.00;;;;;;8297886;28;20202;-67
2023/04/28 19:43:49;;;;;;;20.97;11.80;;;12.10;1.00;;;;;;8297592;28;20248;-68
2023/04/28 19:47:54;;;;;;;16.77;9.87;;;12.00;1.00;;;;;;8295329;28;20222;-68
2023/04/28 19:51:58;;;;;;;27.20;18.10;;;11.90;1.00;;;;;;8301731;28;20189;-68
2023/04/28 19:56:08;;;;;;;21.00;12.63;;;11.80;1.00;;;;;;8299656;28;20212;-68
2023/04/28 20:00:21;;;;;;;15.80;10.27;;;11.70;1.00;;;;;;8304125;28;20212;-68
2023/04/28 20:04:27;;;;;;;16.90;10.73;;;11.70;1.00;;;;;;8307989;28;20194;-68
2023/04/28 20:08:37;;;;;;;16.00;10.70;;;11.70;1.00;;;;;;8316273;28;20211;-67
2023/04/28 20:12:41;;;;;;;44.67;26.57;;;11.70;1.00;;;;;;8305799;28;20194;-67
2023/04/28 20:16:43;;;;;;;33.53;20.97;;;11.70;1.00;;;;;;8314148;28;20218;-67
2023/04/28 20:20:53;;;;;;;17.73;12.17;;;11.60;1.00;;;;;;8303016;28;20197;-68
2023/04/28 20:25:04;;;;;;;14.47;9.70;;;11.60;1.00;;;;;;8304656;28;20190;-67
2023/04/28 20:29:08;;;;;;;12.57;7.70;;;11.50;1.00;;;;;;8307706;28;20190;-66
2023/04/28 20:33:12;;;;;;;9.80;6.57;;;11.40;1.00;;;;;;8302079;28;20209;-67
2023/04/28 20:37:15;;;;;;;8.70;6.40;;;11.30;1.00;;;;;;8314993;28;20224;-67
2023/04/28 20:41:16;;;;;;;13.43;9.20;;;11.20;1.00;;;;;;8299751;28;20234;-67
2023/04/28 20:45:20;;;;;;;16.07;10.90;;;11.20;1.00;;;;;;8290961;28;20210;-67
2023/04/28 20:49:22;;;;;;;16.27;10.90;;;11.10;1.00;;;;;;8296837;28;20270;-65
2023/04/28 20:53:27;;;;;;;14.87;9.90;;;11.10;1.00;;;;;;8313607;28;20200;-65
2023/04/28 20:57:31;;;;;;;13.80;9.30;;;11.00;1.00;;;;;;8306837;28;20192;-65
2023/04/28 21:01:32;;;;;;;13.30;8.30;;;11.00;1.00;;;;;;8297556;28;20284;-65
2023/04/28 21:05:33;;;;;;;10.57;7.60;;;10.90;1.00;;;;;;8300266;28;20245;-65
2023/04/28 21:09:36;;;;;;;10.17;7.27;;;10.80;1.00;;;;;;8318387;28;20203;-66
2023/04/28 21:13:37;;;;;;;9.70;5.97;;;10.80;1.00;;;;;;8301217;28;20198;-66
2023/04/28 21:17:39;;;;;;;9.03;6.17;;;10.70;1.00;;;;;;8297537;28;20229;-66
2023/04/28 21:21:40;;;;;;;8.07;5.93;;;10.70;1.00;;;;;;8316149;28;20322;-65
2023/04/28 21:25:41;;;;;;;10.53;5.97;;;10.60;1.00;;;;;;8300148;28;20203;-64
2023/04/28 21:29:42;;;;;;;7.77;5.73;;;10.60;1.00;;;;;;8301660;28;20191;-64
2023/04/28 21:33:49;;;;;;;8.43;5.73;;;10.60;1.00;;;;;;8301935;28;20247;-66
2023/04/28 21:37:50;;;;;;;6.87;5.20;;;10.50;1.00;;;;;;8298721;28;20181;-66
2023/04/28 21:41:52;;;;;;;6.90;4.60;;;10.50;1.00;;;;;;8298913;28;20176;-65
2023/04/28 21:45:53;;;;;;;7.40;5.20;;;10.50;1.00;;;;;;8297953;28;20184;-65
2023/04/28 21:49:54;;;;;;;6.30;4.80;;;10.50;1.00;;;;;;8317280;28;20209;-65
2023/04/28 21:53:55;;;;;;;6.37;4.90;;;10.40;1.00;;;;;;8300504;28;20230;-66
2023/04/28 21:57:57;;;;;;;6.60;4.87;;;10.40;1.00;;;;;;8301841;28;20192;-65
2023/04/28 22:01:59;;;;;;;6.37;4.40;;;10.40;1.50;;;;;;8298622;28;20179;-64
2023/04/28 22:06:04;;;;;;;5.17;4.33;;;10.30;2.50;;;;;;8303162;28;20191;-65
2023/04/28 22:10:06;;;;;;;5.37;4.17;;;10.30;8.50;;;;;;8298928;28;20226;-64
2023/04/28 22:14:11;;;;;;;6.17;4.60;;;10.20;12.10;;;;;;8316175;28;20206;-65
2023/04/28 22:18:16;;;;;;;6.03;4.43;;;10.30;14.30;;;;;;8316554;28;20194;-65
2023/04/28 22:22:17;;;;;;;5.90;4.33;;;10.20;18.90;;;;;;8316680;28;20198;-66
2023/04/28 22:26:20;;;;;;;5.33;4.27;;;10.30;21.40;;;;;;8317352;28;20282;-65
2023/04/28 22:30:22;;;;;;;6.03;4.67;;;10.30;21.00;;;;;;8298375;28;20206;-65
2023/04/28 22:34:26;;;;;;;4.97;4.10;;;10.30;22.10;;;;;;8300695;28;20199;-65
2023/04/28 22:38:27;;;;;;;6.47;4.53;;;10.30;23.90;;;;;;8310872;28;20303;-64
2023/04/28 22:42:28;;;;;;;5.93;4.27;;;10.30;26.90;;;;;;8302203;28;20186;-65